sensor_id;sensor_type;location;lat;lon;timestamp;temperature;humidity
68924;DHT22;55961;52.156;20.942;2023-06-22T00:01:17;21.90;79.70
68924;DHT22;55961;52.156;20.942;2023-06-22T00:03:43;21.90;79.80
68924;DHT22;55961;52.156;20.942;2023-06-22T00:06:09;21.80;79.80
68924;DHT22;55961;52.156;20.942;2023-06-22T00:08:35;21.80;79.70
68924;DHT22;55961;52.156;20.942;2023-06-22T00:11:01;21.80;79.70
68924;DHT22;55961;52.156;20.942;2023-06-22T00:13:27;21.80;79.90
68924;DHT22;55961;52.156;20.942;2023-06-22T00:15:53;21.70;79.90
68924;DHT22;55961;52.156;20.942;2023-06-22T00:18:19;21.70;79.70
68924;DHT22;55961;52.156;20.942;2023-06-22T00:20:46;21.70;79.70
68924;DHT22;55961;52.156;20.942;2023-06-22T00:23:12;21.60;79.70
68924;DHT22;55961;52.156;20.942;2023-06-22T00:25:43;21.60;79.80
68924;DHT22;55961;52.156;20.942;2023-06-22T00:28:09;21.60;79.90
68924;DHT22;55961;52.156;20.942;2023-06-22T00:30:35;21.50;80.00
68924;DHT22;55961;52.156;20.942;2023-06-22T00:33:01;21.50;80.30
68924;DHT22;55961;52.156;20.942;2023-06-22T00:35:27;21.50;80.40
68924;DHT22;55961;52.156;20.942;2023-06-22T00:37:57;21.50;80.20
68924;DHT22;55961;52.156;20.942;2023-06-22T00:40:28;21.50;80.30
68924;DHT22;55961;52.156;20.942;2023-06-22T00:42:54;21.40;80.50
68924;DHT22;55961;52.156;20.942;2023-06-22T00:45:21;21.40;80.50
68924;DHT22;55961;52.156;20.942;2023-06-22T00:47:52;21.30;80.50
68924;DHT22;55961;52.156;20.942;2023-06-22T00:50:22;21.30;80.60
68924;DHT22;55961;52.156;20.942;2023-06-22T00:52:59;21.30;80.70
68924;DHT22;55961;52.156;20.942;2023-06-22T00:55:26;21.30;80.90
68924;DHT22;55961;52.156;20.942;2023-06-22T00:57:53;21.30;81.00
68924;DHT22;55961;52.156;20.942;2023-06-22T01:00:23;21.20;81.00
68924;DHT22;55961;52.156;20.942;2023-06-22T01:02:51;21.20;81.10
68924;DHT22;55961;52.156;20.942;2023-06-22T01:05:19;21.20;80.90
68924;DHT22;55961;52.156;20.942;2023-06-22T01:10:51;21.10;81.10
68924;DHT22;55961;52.156;20.942;2023-06-22T01:13:29;21.10;81.10
68924;DHT22;55961;52.156;20.942;2023-06-22T01:16:17;21.10;81.20
68924;DHT22;55961;52.156;20.942;2023-06-22T01:18:47;21.10;81.10
68924;DHT22;55961;52.156;20.942;2023-06-22T01:21:18;21.10;81.10
68924;DHT22;55961;52.156;20.942;2023-06-22T01:26:39;21.00;81.20
68924;DHT22;55961;52.156;20.942;2023-06-22T01:29:06;21.00;81.20
68924;DHT22;55961;52.156;20.942;2023-06-22T01:31:34;21.00;81.30
68924;DHT22;55961;52.156;20.942;2023-06-22T01:34:03;21.00;81.20
68924;DHT22;55961;52.156;20.942;2023-06-22T01:36:31;20.90;81.20
68924;DHT22;55961;52.156;20.942;2023-06-22T01:38:58;20.90;81.40
68924;DHT22;55961;52.156;20.942;2023-06-22T01:41:29;20.90;81.70
68924;DHT22;55961;52.156;20.942;2023-06-22T01:43:56;20.80;81.70
68924;DHT22;55961;52.156;20.942;2023-06-22T01:46:23;20.80;81.80
68924;DHT22;55961;52.156;20.942;2023-06-22T01:48:49;20.80;81.70
68924;DHT22;55961;52.156;20.942;2023-06-22T01:51:16;20.80;81.80
68924;DHT22;55961;52.156;20.942;2023-06-22T01:53:42;20.80;81.80
68924;DHT22;55961;52.156;20.942;2023-06-22T01:56:09;20.80;81.50
68924;DHT22;55961;52.156;20.942;2023-06-22T01:58:38;20.80;81.30
68924;DHT22;55961;52.156;20.942;2023-06-22T02:01:10;20.70;81.50
68924;DHT22;55961;52.156;20.942;2023-06-22T02:03:50;20.70;82.10
68924;DHT22;55961;52.156;20.942;2023-06-22T02:06:23;20.70;82.60
68924;DHT22;55961;52.156;20.942;2023-06-22T02:08:55;20.60;83.40
68924;DHT22;55961;52.156;20.942;2023-06-22T02:11:23;20.60;84.00
68924;DHT22;55961;52.156;20.942;2023-06-22T02:13:51;20.60;84.40
68924;DHT22;55961;52.156;20.942;2023-06-22T02:16:18;20.60;84.60
68924;DHT22;55961;52.156;20.942;2023-06-22T02:18:48;20.50;85.00
68924;DHT22;55961;52.156;20.942;2023-06-22T02:21:20;20.50;85.50
68924;DHT22;55961;52.156;20.942;2023-06-22T02:23:46;20.50;86.00
68924;DHT22;55961;52.156;20.942;2023-06-22T02:26:13;20.50;86.20
68924;DHT22;55961;52.156;20.942;2023-06-22T02:28:39;20.50;86.70
68924;DHT22;55961;52.156;20.942;2023-06-22T02:31:05;20.50;87.10
68924;DHT22;55961;52.156;20.942;2023-06-22T02:33:31;20.50;87.20
68924;DHT22;55961;52.156;20.942;2023-06-22T02:35:57;20.50;87.60
68924;DHT22;55961;52.156;20.942;2023-06-22T02:38:23;20.50;87.70
68924;DHT22;55961;52.156;20.942;2023-06-22T02:40:50;20.50;87.80
68924;DHT22;55961;52.156;20.942;2023-06-22T02:43:16;20.50;87.90
68924;DHT22;55961;52.156;20.942;2023-06-22T02:45:42;20.40;88.10
68924;DHT22;55961;52.156;20.942;2023-06-22T02:48:08;20.40;88.20
68924;DHT22;55961;52.156;20.942;2023-06-22T02:50:34;20.40;88.40
68924;DHT22;55961;52.156;20.942;2023-06-22T02:53:00;20.40;88.60
68924;DHT22;55961;52.156;20.942;2023-06-22T02:55:26;20.40;88.80
68924;DHT22;55961;52.156;20.942;2023-06-22T02:57:51;20.40;89.40
68924;DHT22;55961;52.156;20.942;2023-06-22T03:00:19;20.40;89.70
68924;DHT22;55961;52.156;20.942;2023-06-22T03:02:48;20.40;90.00
68924;DHT22;55961;52.156;20.942;2023-06-22T03:05:15;20.40;90.40
68924;DHT22;55961;52.156;20.942;2023-06-22T03:07:46;20.40;90.70
68924;DHT22;55961;52.156;20.942;2023-06-22T03:10:13;20.40;90.80
68924;DHT22;55961;52.156;20.942;2023-06-22T03:12:40;20.50;90.90
68924;DHT22;55961;52.156;20.942;2023-06-22T03:15:08;20.40;90.90
68924;DHT22;55961;52.156;20.942;2023-06-22T03:17:35;20.40;90.80
68924;DHT22;55961;52.156;20.942;2023-06-22T03:20:02;20.50;91.00
68924;DHT22;55961;52.156;20.942;2023-06-22T03:22:38;20.50;91.20
68924;DHT22;55961;52.156;20.942;2023-06-22T03:25:05;20.50;91.10
68924;DHT22;55961;52.156;20.942;2023-06-22T03:27:39;20.50;91.10
68924;DHT22;55961;52.156;20.942;2023-06-22T03:30:08;20.50;90.90
68924;DHT22;55961;52.156;20.942;2023-06-22T03:32:34;20.60;90.90
68924;DHT22;55961;52.156;20.942;2023-06-22T03:35:00;20.60;91.00
68924;DHT22;55961;52.156;20.942;2023-06-22T03:37:27;20.60;90.80
68924;DHT22;55961;52.156;20.942;2023-06-22T03:39:54;20.60;90.60
68924;DHT22;55961;52.156;20.942;2023-06-22T03:42:20;20.70;90.70
68924;DHT22;55961;52.156;20.942;2023-06-22T03:44:46;20.70;90.60
68924;DHT22;55961;52.156;20.942;2023-06-22T03:47:12;20.70;90.40
68924;DHT22;55961;52.156;20.942;2023-06-22T03:49:38;20.80;90.20
68924;DHT22;55961;52.156;20.942;2023-06-22T03:52:05;20.80;90.00
68924;DHT22;55961;52.156;20.942;2023-06-22T03:54:31;20.80;90.00
68924;DHT22;55961;52.156;20.942;2023-06-22T03:56:58;20.80;89.80
68924;DHT22;55961;52.156;20.942;2023-06-22T03:59:24;20.90;89.60
68924;DHT22;55961;52.156;20.942;2023-06-22T04:01:50;20.90;89.40
68924;DHT22;55961;52.156;20.942;2023-06-22T04:04:19;20.90;89.30
68924;DHT22;55961;52.156;20.942;2023-06-22T04:06:45;21.00;89.30
68924;DHT22;55961;52.156;20.942;2023-06-22T04:09:12;21.00;89.20
68924;DHT22;55961;52.156;20.942;2023-06-22T04:11:37;21.00;88.80
68924;DHT22;55961;52.156;20.942;2023-06-22T04:14:03;21.00;88.60
68924;DHT22;55961;52.156;20.942;2023-06-22T04:16:29;21.10;88.20
68924;DHT22;55961;52.156;20.942;2023-06-22T04:18:55;21.10;88.30
68924;DHT22;55961;52.156;20.942;2023-06-22T04:21:21;21.10;88.40
68924;DHT22;55961;52.156;20.942;2023-06-22T04:23:47;21.10;88.00
68924;DHT22;55961;52.156;20.942;2023-06-22T04:26:14;21.20;87.80
68924;DHT22;55961;52.156;20.942;2023-06-22T04:28:40;21.20;87.70
68924;DHT22;55961;52.156;20.942;2023-06-22T04:31:06;21.20;87.70
68924;DHT22;55961;52.156;20.942;2023-06-22T04:33:32;21.30;87.70
68924;DHT22;55961;52.156;20.942;2023-06-22T04:35:59;21.30;87.30
68924;DHT22;55961;52.156;20.942;2023-06-22T04:38:29;21.30;87.20
68924;DHT22;55961;52.156;20.942;2023-06-22T04:40:58;21.40;86.70
68924;DHT22;55961;52.156;20.942;2023-06-22T04:43:27;21.40;86.90
68924;DHT22;55961;52.156;20.942;2023-06-22T04:45:56;21.40;86.50
68924;DHT22;55961;52.156;20.942;2023-06-22T04:48:32;21.40;86.60
68924;DHT22;55961;52.156;20.942;2023-06-22T04:51:02;21.40;86.30
68924;DHT22;55961;52.156;20.942;2023-06-22T04:53:31;21.40;86.20
68924;DHT22;55961;52.156;20.942;2023-06-22T04:55:57;21.50;86.20
68924;DHT22;55961;52.156;20.942;2023-06-22T04:58:23;21.50;86.00
68924;DHT22;55961;52.156;20.942;2023-06-22T05:00:52;21.50;85.90
68924;DHT22;55961;52.156;20.942;2023-06-22T05:03:18;21.50;86.00
68924;DHT22;55961;52.156;20.942;2023-06-22T05:05:44;21.50;85.40
68924;DHT22;55961;52.156;20.942;2023-06-22T05:08:11;21.50;85.50
68924;DHT22;55961;52.156;20.942;2023-06-22T05:10:37;21.50;85.40
68924;DHT22;55961;52.156;20.942;2023-06-22T05:13:03;21.50;85.20
68924;DHT22;55961;52.156;20.942;2023-06-22T05:15:29;21.60;85.40
68924;DHT22;55961;52.156;20.942;2023-06-22T05:17:59;21.60;85.50
68924;DHT22;55961;52.156;20.942;2023-06-22T05:20:25;21.60;85.40
68924;DHT22;55961;52.156;20.942;2023-06-22T05:22:51;21.60;85.40
68924;DHT22;55961;52.156;20.942;2023-06-22T05:25:17;21.70;85.50
68924;DHT22;55961;52.156;20.942;2023-06-22T05:27:43;21.70;85.10
68924;DHT22;55961;52.156;20.942;2023-06-22T05:30:10;21.80;84.60
68924;DHT22;55961;52.156;20.942;2023-06-22T05:32:37;21.80;84.10
68924;DHT22;55961;52.156;20.942;2023-06-22T05:35:03;21.80;83.80
68924;DHT22;55961;52.156;20.942;2023-06-22T05:37:30;21.90;83.50
68924;DHT22;55961;52.156;20.942;2023-06-22T05:39:55;21.90;83.40
68924;DHT22;55961;52.156;20.942;2023-06-22T05:42:23;21.90;83.50
68924;DHT22;55961;52.156;20.942;2023-06-22T05:44:51;21.90;83.10
68924;DHT22;55961;52.156;20.942;2023-06-22T05:47:19;21.90;83.10
68924;DHT22;55961;52.156;20.942;2023-06-22T05:49:44;22.00;83.00
68924;DHT22;55961;52.156;20.942;2023-06-22T05:52:11;22.00;82.80
68924;DHT22;55961;52.156;20.942;2023-06-22T05:54:37;22.00;82.50
68924;DHT22;55961;52.156;20.942;2023-06-22T05:57:04;22.10;82.90
68924;DHT22;55961;52.156;20.942;2023-06-22T05:59:30;22.10;83.00
68924;DHT22;55961;52.156;20.942;2023-06-22T06:01:56;22.10;82.70
68924;DHT22;55961;52.156;20.942;2023-06-22T06:04:22;22.20;82.10
68924;DHT22;55961;52.156;20.942;2023-06-22T06:06:48;22.20;82.00
68924;DHT22;55961;52.156;20.942;2023-06-22T06:09:14;22.30;81.70
68924;DHT22;55961;52.156;20.942;2023-06-22T06:11:40;22.30;81.60
68924;DHT22;55961;52.156;20.942;2023-06-22T06:14:06;22.30;81.00
68924;DHT22;55961;52.156;20.942;2023-06-22T06:16:32;22.30;81.10
68924;DHT22;55961;52.156;20.942;2023-06-22T06:18:58;22.40;80.50
68924;DHT22;55961;52.156;20.942;2023-06-22T06:21:24;22.40;80.50
68924;DHT22;55961;52.156;20.942;2023-06-22T06:23:50;22.40;80.40
68924;DHT22;55961;52.156;20.942;2023-06-22T06:26:16;22.40;81.00
68924;DHT22;55961;52.156;20.942;2023-06-22T06:28:43;22.40;80.70
68924;DHT22;55961;52.156;20.942;2023-06-22T06:31:09;22.50;80.00
68924;DHT22;55961;52.156;20.942;2023-06-22T06:33:36;22.50;79.70
68924;DHT22;55961;52.156;20.942;2023-06-22T06:36:02;22.50;80.00
68924;DHT22;55961;52.156;20.942;2023-06-22T06:38:31;22.60;80.00
68924;DHT22;55961;52.156;20.942;2023-06-22T06:40:58;22.70;80.00
68924;DHT22;55961;52.156;20.942;2023-06-22T06:43:24;22.70;79.60
68924;DHT22;55961;52.156;20.942;2023-06-22T06:45:51;22.80;79.40
68924;DHT22;55961;52.156;20.942;2023-06-22T06:48:17;22.90;78.50
68924;DHT22;55961;52.156;20.942;2023-06-22T06:50:43;23.00;77.80
68924;DHT22;55961;52.156;20.942;2023-06-22T06:53:10;23.00;78.20
68924;DHT22;55961;52.156;20.942;2023-06-22T06:55:36;23.10;77.80
68924;DHT22;55961;52.156;20.942;2023-06-22T06:58:03;23.10;77.60
68924;DHT22;55961;52.156;20.942;2023-06-22T07:00:33;23.20;76.90
68924;DHT22;55961;52.156;20.942;2023-06-22T07:02:59;23.30;76.60
68924;DHT22;55961;52.156;20.942;2023-06-22T07:05:25;23.30;76.30
68924;DHT22;55961;52.156;20.942;2023-06-22T07:07:51;23.40;76.10
68924;DHT22;55961;52.156;20.942;2023-06-22T07:10:17;23.50;76.10
68924;DHT22;55961;52.156;20.942;2023-06-22T07:12:43;23.60;74.50
68924;DHT22;55961;52.156;20.942;2023-06-22T07:15:09;23.70;74.60
68924;DHT22;55961;52.156;20.942;2023-06-22T07:17:36;23.90;73.30
68924;DHT22;55961;52.156;20.942;2023-06-22T07:20:03;23.90;73.00
68924;DHT22;55961;52.156;20.942;2023-06-22T07:22:34;24.00;72.70
68924;DHT22;55961;52.156;20.942;2023-06-22T07:25:00;24.20;72.80
68924;DHT22;55961;52.156;20.942;2023-06-22T07:27:26;24.30;72.40
68924;DHT22;55961;52.156;20.942;2023-06-22T07:29:52;24.40;70.80
68924;DHT22;55961;52.156;20.942;2023-06-22T07:32:18;24.60;70.80
68924;DHT22;55961;52.156;20.942;2023-06-22T07:34:44;24.70;70.10
68924;DHT22;55961;52.156;20.942;2023-06-22T07:37:10;24.80;69.50
68924;DHT22;55961;52.156;20.942;2023-06-22T07:39:36;24.90;69.50
68924;DHT22;55961;52.156;20.942;2023-06-22T07:42:03;25.10;67.90
68924;DHT22;55961;52.156;20.942;2023-06-22T07:44:29;25.20;66.90
68924;DHT22;55961;52.156;20.942;2023-06-22T07:46:55;25.30;66.60
68924;DHT22;55961;52.156;20.942;2023-06-22T07:49:21;25.50;67.00
68924;DHT22;55961;52.156;20.942;2023-06-22T07:51:47;25.60;65.50
68924;DHT22;55961;52.156;20.942;2023-06-22T07:54:13;25.80;64.50
68924;DHT22;55961;52.156;20.942;2023-06-22T07:56:41;25.90;64.60
68924;DHT22;55961;52.156;20.942;2023-06-22T07:59:07;25.90;63.90
68924;DHT22;55961;52.156;20.942;2023-06-22T08:01:33;26.00;63.60
68924;DHT22;55961;52.156;20.942;2023-06-22T08:03:59;26.10;62.40
68924;DHT22;55961;52.156;20.942;2023-06-22T08:06:25;26.10;62.70
68924;DHT22;55961;52.156;20.942;2023-06-22T08:08:51;26.20;62.40
68924;DHT22;55961;52.156;20.942;2023-06-22T08:11:18;26.30;61.50
68924;DHT22;55961;52.156;20.942;2023-06-22T08:13:44;26.40;61.20
68924;DHT22;55961;52.156;20.942;2023-06-22T08:16:10;26.50;61.30
68924;DHT22;55961;52.156;20.942;2023-06-22T08:18:36;26.60;61.20
68924;DHT22;55961;52.156;20.942;2023-06-22T08:21:02;26.70;60.60
68924;DHT22;55961;52.156;20.942;2023-06-22T08:23:28;26.80;59.00
68924;DHT22;55961;52.156;20.942;2023-06-22T08:25:54;26.90;58.90
68924;DHT22;55961;52.156;20.942;2023-06-22T08:28:20;27.00;58.90
68924;DHT22;55961;52.156;20.942;2023-06-22T08:30:46;27.10;58.50
68924;DHT22;55961;52.156;20.942;2023-06-22T08:33:12;27.20;58.10
68924;DHT22;55961;52.156;20.942;2023-06-22T08:35:38;27.30;57.60
68924;DHT22;55961;52.156;20.942;2023-06-22T08:38:04;27.50;58.10
68924;DHT22;55961;52.156;20.942;2023-06-22T08:40:30;27.50;57.10
68924;DHT22;55961;52.156;20.942;2023-06-22T08:42:56;27.60;57.40
68924;DHT22;55961;52.156;20.942;2023-06-22T08:45:22;27.70;56.30
68924;DHT22;55961;52.156;20.942;2023-06-22T08:47:48;27.80;56.10
68924;DHT22;55961;52.156;20.942;2023-06-22T08:50:14;27.90;54.90
68924;DHT22;55961;52.156;20.942;2023-06-22T08:52:40;28.00;55.70
68924;DHT22;55961;52.156;20.942;2023-06-22T08:55:09;28.20;54.60
68924;DHT22;55961;52.156;20.942;2023-06-22T08:57:36;28.20;54.00
68924;DHT22;55961;52.156;20.942;2023-06-22T09:00:08;28.40;53.30
68924;DHT22;55961;52.156;20.942;2023-06-22T09:02:46;28.40;51.70
68924;DHT22;55961;52.156;20.942;2023-06-22T09:05:12;28.50;52.70
68924;DHT22;55961;52.156;20.942;2023-06-22T09:07:38;28.60;53.10
68924;DHT22;55961;52.156;20.942;2023-06-22T09:10:05;28.60;50.50
68924;DHT22;55961;52.156;20.942;2023-06-22T09:12:32;28.70;50.80
68924;DHT22;55961;52.156;20.942;2023-06-22T09:14:59;28.70;50.80
68924;DHT22;55961;52.156;20.942;2023-06-22T09:17:26;28.80;51.40
68924;DHT22;55961;52.156;20.942;2023-06-22T09:19:53;28.90;51.00
68924;DHT22;55961;52.156;20.942;2023-06-22T09:22:19;29.10;49.50
68924;DHT22;55961;52.156;20.942;2023-06-22T09:24:44;29.10;48.90
68924;DHT22;55961;52.156;20.942;2023-06-22T09:27:11;29.10;49.10
68924;DHT22;55961;52.156;20.942;2023-06-22T09:29:36;29.10;50.00
68924;DHT22;55961;52.156;20.942;2023-06-22T09:32:03;29.20;48.70
68924;DHT22;55961;52.156;20.942;2023-06-22T09:34:29;29.30;47.70
68924;DHT22;55961;52.156;20.942;2023-06-22T09:36:57;29.30;47.70
68924;DHT22;55961;52.156;20.942;2023-06-22T09:39:26;29.40;47.10
68924;DHT22;55961;52.156;20.942;2023-06-22T09:41:52;29.40;46.80
68924;DHT22;55961;52.156;20.942;2023-06-22T09:44:18;29.50;47.10
68924;DHT22;55961;52.156;20.942;2023-06-22T09:46:44;29.50;47.00
68924;DHT22;55961;52.156;20.942;2023-06-22T09:49:10;29.50;47.60
68924;DHT22;55961;52.156;20.942;2023-06-22T09:51:36;29.60;47.00
68924;DHT22;55961;52.156;20.942;2023-06-22T09:54:02;29.70;46.30
68924;DHT22;55961;52.156;20.942;2023-06-22T09:56:28;29.80;46.80
68924;DHT22;55961;52.156;20.942;2023-06-22T09:58:55;29.90;46.50
68924;DHT22;55961;52.156;20.942;2023-06-22T10:01:21;30.10;46.20
68924;DHT22;55961;52.156;20.942;2023-06-22T10:03:47;30.20;46.40
68924;DHT22;55961;52.156;20.942;2023-06-22T10:06:13;30.30;45.60
68924;DHT22;55961;52.156;20.942;2023-06-22T10:08:39;30.30;45.40
68924;DHT22;55961;52.156;20.942;2023-06-22T10:11:06;30.40;45.50
68924;DHT22;55961;52.156;20.942;2023-06-22T10:13:32;30.40;45.80
68924;DHT22;55961;52.156;20.942;2023-06-22T10:15:58;30.40;46.00
68924;DHT22;55961;52.156;20.942;2023-06-22T10:18:24;30.50;45.30
68924;DHT22;55961;52.156;20.942;2023-06-22T10:20:51;30.60;46.00
68924;DHT22;55961;52.156;20.942;2023-06-22T10:23:17;30.70;45.70
68924;DHT22;55961;52.156;20.942;2023-06-22T10:25:43;30.80;44.90
68924;DHT22;55961;52.156;20.942;2023-06-22T10:28:09;30.90;45.50
68924;DHT22;55961;52.156;20.942;2023-06-22T10:30:35;30.90;45.50
68924;DHT22;55961;52.156;20.942;2023-06-22T10:33:01;30.90;45.50
68924;DHT22;55961;52.156;20.942;2023-06-22T10:35:27;30.90;47.00
68924;DHT22;55961;52.156;20.942;2023-06-22T10:37:53;30.90;46.30
68924;DHT22;55961;52.156;20.942;2023-06-22T10:40:20;31.00;45.60
68924;DHT22;55961;52.156;20.942;2023-06-22T10:42:46;31.00;46.50
68924;DHT22;55961;52.156;20.942;2023-06-22T10:45:12;31.00;46.40
68924;DHT22;55961;52.156;20.942;2023-06-22T10:47:38;31.10;46.30
68924;DHT22;55961;52.156;20.942;2023-06-22T10:50:04;31.20;46.10
68924;DHT22;55961;52.156;20.942;2023-06-22T10:52:31;31.30;45.20
68924;DHT22;55961;52.156;20.942;2023-06-22T10:54:57;31.40;45.30
68924;DHT22;55961;52.156;20.942;2023-06-22T10:57:23;31.30;44.50
68924;DHT22;55961;52.156;20.942;2023-06-22T10:59:49;31.30;44.90
68924;DHT22;55961;52.156;20.942;2023-06-22T11:02:15;31.30;45.30
68924;DHT22;55961;52.156;20.942;2023-06-22T11:04:41;31.30;45.70
68924;DHT22;55961;52.156;20.942;2023-06-22T11:07:07;31.40;45.10
68924;DHT22;55961;52.156;20.942;2023-06-22T11:09:33;31.40;45.20
68924;DHT22;55961;52.156;20.942;2023-06-22T11:11:58;31.50;44.60
68924;DHT22;55961;52.156;20.942;2023-06-22T11:14:25;31.50;44.50
68924;DHT22;55961;52.156;20.942;2023-06-22T11:16:51;31.70;45.10
68924;DHT22;55961;52.156;20.942;2023-06-22T11:19:18;31.80;44.40
68924;DHT22;55961;52.156;20.942;2023-06-22T11:21:44;31.90;43.80
68924;DHT22;55961;52.156;20.942;2023-06-22T11:24:10;31.90;43.80
68924;DHT22;55961;52.156;20.942;2023-06-22T11:26:36;32.00;43.60
68924;DHT22;55961;52.156;20.942;2023-06-22T11:29:02;32.10;43.30
68924;DHT22;55961;52.156;20.942;2023-06-22T11:31:32;32.10;43.80
68924;DHT22;55961;52.156;20.942;2023-06-22T11:33:58;32.20;43.00
68924;DHT22;55961;52.156;20.942;2023-06-22T11:36:25;32.30;43.00
68924;DHT22;55961;52.156;20.942;2023-06-22T11:38:51;32.40;42.10
68924;DHT22;55961;52.156;20.942;2023-06-22T11:41:17;32.40;43.20
68924;DHT22;55961;52.156;20.942;2023-06-22T11:43:44;32.50;42.90
68924;DHT22;55961;52.156;20.942;2023-06-22T11:46:10;32.60;42.50
68924;DHT22;55961;52.156;20.942;2023-06-22T11:48:36;32.60;42.50
68924;DHT22;55961;52.156;20.942;2023-06-22T11:51:02;32.60;42.60
68924;DHT22;55961;52.156;20.942;2023-06-22T11:53:29;32.70;41.70
68924;DHT22;55961;52.156;20.942;2023-06-22T11:55:55;32.70;41.20
68924;DHT22;55961;52.156;20.942;2023-06-22T11:58:22;32.70;42.20
68924;DHT22;55961;52.156;20.942;2023-06-22T12:00:49;32.70;41.50
68924;DHT22;55961;52.156;20.942;2023-06-22T12:03:16;32.80;42.30
68924;DHT22;55961;52.156;20.942;2023-06-22T12:05:42;32.80;41.30
68924;DHT22;55961;52.156;20.942;2023-06-22T12:08:08;32.70;41.20
68924;DHT22;55961;52.156;20.942;2023-06-22T12:10:34;32.70;41.60
68924;DHT22;55961;52.156;20.942;2023-06-22T12:13:00;32.70;40.60
68924;DHT22;55961;52.156;20.942;2023-06-22T12:15:29;32.60;40.70
68924;DHT22;55961;52.156;20.942;2023-06-22T12:17:55;32.70;41.70
68924;DHT22;55961;52.156;20.942;2023-06-22T12:20:21;32.80;41.10
68924;DHT22;55961;52.156;20.942;2023-06-22T12:22:47;32.80;41.50
68924;DHT22;55961;52.156;20.942;2023-06-22T12:25:13;32.80;40.80
68924;DHT22;55961;52.156;20.942;2023-06-22T12:27:39;32.80;41.30
68924;DHT22;55961;52.156;20.942;2023-06-22T12:30:05;32.80;40.80
68924;DHT22;55961;52.156;20.942;2023-06-22T12:32:31;32.80;41.00
68924;DHT22;55961;52.156;20.942;2023-06-22T12:34:57;32.80;41.40
68924;DHT22;55961;52.156;20.942;2023-06-22T12:37:23;32.90;41.50
68924;DHT22;55961;52.156;20.942;2023-06-22T12:39:49;33.10;41.40
68924;DHT22;55961;52.156;20.942;2023-06-22T12:42:16;33.20;40.20
68924;DHT22;55961;52.156;20.942;2023-06-22T12:44:42;33.40;40.40
68924;DHT22;55961;52.156;20.942;2023-06-22T12:47:09;33.50;39.60
68924;DHT22;55961;52.156;20.942;2023-06-22T12:49:35;33.50;39.60
68924;DHT22;55961;52.156;20.942;2023-06-22T12:52:02;33.50;38.70
68924;DHT22;55961;52.156;20.942;2023-06-22T12:54:28;33.40;38.40
68924;DHT22;55961;52.156;20.942;2023-06-22T12:56:55;33.40;38.40
68924;DHT22;55961;52.156;20.942;2023-06-22T12:59:22;33.30;39.70
68924;DHT22;55961;52.156;20.942;2023-06-22T13:01:48;33.30;38.80
68924;DHT22;55961;52.156;20.942;2023-06-22T13:04:13;33.30;39.30
68924;DHT22;55961;52.156;20.942;2023-06-22T13:06:41;33.40;38.80
68924;DHT22;55961;52.156;20.942;2023-06-22T13:09:08;33.40;38.30
68924;DHT22;55961;52.156;20.942;2023-06-22T13:11:35;33.50;39.20
68924;DHT22;55961;52.156;20.942;2023-06-22T13:14:00;33.60;38.40
68924;DHT22;55961;52.156;20.942;2023-06-22T13:16:26;33.70;38.40
68924;DHT22;55961;52.156;20.942;2023-06-22T13:18:52;33.80;38.20
68924;DHT22;55961;52.156;20.942;2023-06-22T13:21:18;33.90;37.90
68924;DHT22;55961;52.156;20.942;2023-06-22T13:23:44;34.00;37.70
68924;DHT22;55961;52.156;20.942;2023-06-22T13:26:10;34.10;36.50
68924;DHT22;55961;52.156;20.942;2023-06-22T13:28:36;34.00;37.20
68924;DHT22;55961;52.156;20.942;2023-06-22T13:31:02;34.00;37.20
68924;DHT22;55961;52.156;20.942;2023-06-22T13:33:28;33.80;37.80
68924;DHT22;55961;52.156;20.942;2023-06-22T13:35:54;33.80;38.10
68924;DHT22;55961;52.156;20.942;2023-06-22T13:38:20;33.70;37.00
68924;DHT22;55961;52.156;20.942;2023-06-22T13:40:46;33.70;36.60
68924;DHT22;55961;52.156;20.942;2023-06-22T13:43:13;33.60;36.60
68924;DHT22;55961;52.156;20.942;2023-06-22T13:45:39;33.60;35.70
68924;DHT22;55961;52.156;20.942;2023-06-22T13:48:05;33.50;36.30
68924;DHT22;55961;52.156;20.942;2023-06-22T13:50:31;33.50;36.70
68924;DHT22;55961;52.156;20.942;2023-06-22T13:52:57;33.50;37.00
68924;DHT22;55961;52.156;20.942;2023-06-22T13:55:23;33.50;36.80
68924;DHT22;55961;52.156;20.942;2023-06-22T13:57:49;33.40;37.30
68924;DHT22;55961;52.156;20.942;2023-06-22T14:00:17;33.40;37.80
68924;DHT22;55961;52.156;20.942;2023-06-22T14:02:43;33.40;37.40
68924;DHT22;55961;52.156;20.942;2023-06-22T14:05:09;33.50;37.10
68924;DHT22;55961;52.156;20.942;2023-06-22T14:07:36;33.50;37.30
68924;DHT22;55961;52.156;20.942;2023-06-22T14:10:03;33.60;37.10
68924;DHT22;55961;52.156;20.942;2023-06-22T14:12:30;33.70;37.00
68924;DHT22;55961;52.156;20.942;2023-06-22T14:14:56;33.80;37.60
68924;DHT22;55961;52.156;20.942;2023-06-22T14:17:23;33.90;36.80
68924;DHT22;55961;52.156;20.942;2023-06-22T14:19:52;34.00;36.60
68924;DHT22;55961;52.156;20.942;2023-06-22T14:22:21;34.10;36.30
68924;DHT22;55961;52.156;20.942;2023-06-22T14:24:48;34.20;35.80
68924;DHT22;55961;52.156;20.942;2023-06-22T14:27:15;34.20;35.60
68924;DHT22;55961;52.156;20.942;2023-06-22T14:29:41;34.20;36.10
68924;DHT22;55961;52.156;20.942;2023-06-22T14:32:07;34.10;36.60
68924;DHT22;55961;52.156;20.942;2023-06-22T14:34:34;33.90;36.80
68924;DHT22;55961;52.156;20.942;2023-06-22T14:37:08;33.90;37.50
68924;DHT22;55961;52.156;20.942;2023-06-22T14:39:39;33.80;37.90
68924;DHT22;55961;52.156;20.942;2023-06-22T14:42:08;33.80;38.50
68924;DHT22;55961;52.156;20.942;2023-06-22T14:44:34;33.70;38.20
68924;DHT22;55961;52.156;20.942;2023-06-22T14:47:00;33.70;38.20
68924;DHT22;55961;52.156;20.942;2023-06-22T14:49:26;33.80;38.30
68924;DHT22;55961;52.156;20.942;2023-06-22T14:51:52;33.90;37.70
68924;DHT22;55961;52.156;20.942;2023-06-22T14:54:18;33.90;37.40
68924;DHT22;55961;52.156;20.942;2023-06-22T14:56:44;34.00;36.90
68924;DHT22;55961;52.156;20.942;2023-06-22T14:59:10;34.00;36.50
68924;DHT22;55961;52.156;20.942;2023-06-22T15:01:36;33.90;37.00
68924;DHT22;55961;52.156;20.942;2023-06-22T15:04:02;33.90;37.30
68924;DHT22;55961;52.156;20.942;2023-06-22T15:06:28;33.90;37.60
68924;DHT22;55961;52.156;20.942;2023-06-22T15:08:54;33.80;37.40
68924;DHT22;55961;52.156;20.942;2023-06-22T15:11:20;33.80;37.20
68924;DHT22;55961;52.156;20.942;2023-06-22T15:13:46;33.60;37.50
68924;DHT22;55961;52.156;20.942;2023-06-22T15:16:12;33.60;37.80
68924;DHT22;55961;52.156;20.942;2023-06-22T15:18:38;33.50;37.50